sensor_id;sensor_type;location;lat;lon;timestamp;P1;durP1;ratioP1;P2;durP2;ratioP2
6825;SDS011;3451;52.476;13.316;2023-12-22T00:00:19;7.07;;;2.20;;
6825;SDS011;3451;52.476;13.316;2023-12-22T00:02:46;6.43;;;1.67;;
6825;SDS011;3451;52.476;13.316;2023-12-22T00:05:12;4.10;;;1.77;;
6825;SDS011;3451;52.476;13.316;2023-12-22T00:07:38;10.37;;;2.23;;
6825;SDS011;3451;52.476;13.316;2023-12-22T00:10:05;5.70;;;1.63;;
6825;SDS011;3451;52.476;13.316;2023-12-22T00:12:32;8.53;;;2.30;;
6825;SDS011;3451;52.476;13.316;2023-12-22T00:14:58;11.13;;;2.97;;
6825;SDS011;3451;52.476;13.316;2023-12-22T00:17:25;7.70;;;1.67;;
6825;SDS011;3451;52.476;13.316;2023-12-22T00:19:51;8.57;;;2.40;;
6825;SDS011;3451;52.476;13.316;2023-12-22T00:22:17;9.00;;;2.03;;
6825;SDS011;3451;52.476;13.316;2023-12-22T00:24:44;12.57;;;2.80;;
6825;SDS011;3451;52.476;13.316;2023-12-22T00:27:10;12.83;;;2.77;;
6825;SDS011;3451;52.476;13.316;2023-12-22T00:29:36;10.50;;;2.33;;
6825;SDS011;3451;52.476;13.316;2023-12-22T00:32:03;13.03;;;2.40;;
6825;SDS011;3451;52.476;13.316;2023-12-22T00:34:30;12.23;;;2.97;;
6825;SDS011;3451;52.476;13.316;2023-12-22T00:36:56;14.37;;;3.03;;
6825;SDS011;3451;52.476;13.316;2023-12-22T00:39:22;14.67;;;2.73;;
6825;SDS011;3451;52.476;13.316;2023-12-22T00:41:49;12.40;;;2.83;;
6825;SDS011;3451;52.476;13.316;2023-12-22T00:44:15;17.97;;;3.20;;
6825;SDS011;3451;52.476;13.316;2023-12-22T00:46:41;11.63;;;3.37;;
6825;SDS011;3451;52.476;13.316;2023-12-22T00:49:08;17.23;;;2.87;;
6825;SDS011;3451;52.476;13.316;2023-12-22T00:51:34;12.77;;;3.13;;
6825;SDS011;3451;52.476;13.316;2023-12-22T00:54:00;9.80;;;2.70;;
6825;SDS011;3451;52.476;13.316;2023-12-22T00:56:26;7.17;;;1.90;;
6825;SDS011;3451;52.476;13.316;2023-12-22T00:58:53;10.70;;;2.10;;
6825;SDS011;3451;52.476;13.316;2023-12-22T01:01:30;13.43;;;2.27;;
6825;SDS011;3451;52.476;13.316;2023-12-22T01:03:57;8.20;;;2.20;;
6825;SDS011;3451;52.476;13.316;2023-12-22T01:06:23;8.93;;;2.20;;
6825;SDS011;3451;52.476;13.316;2023-12-22T01:08:54;7.73;;;1.80;;
6825;SDS011;3451;52.476;13.316;2023-12-22T01:11:20;9.57;;;2.00;;
6825;SDS011;3451;52.476;13.316;2023-12-22T01:13:46;12.27;;;2.17;;
6825;SDS011;3451;52.476;13.316;2023-12-22T01:16:13;10.83;;;2.00;;
6825;SDS011;3451;52.476;13.316;2023-12-22T01:18:41;12.40;;;2.30;;
6825;SDS011;3451;52.476;13.316;2023-12-22T01:21:10;12.87;;;2.50;;
6825;SDS011;3451;52.476;13.316;2023-12-22T01:23:36;10.60;;;2.53;;
6825;SDS011;3451;52.476;13.316;2023-12-22T01:26:02;11.40;;;2.70;;
6825;SDS011;3451;52.476;13.316;2023-12-22T01:28:29;12.80;;;2.60;;
6825;SDS011;3451;52.476;13.316;2023-12-22T01:30:55;12.60;;;2.80;;
6825;SDS011;3451;52.476;13.316;2023-12-22T01:33:21;13.77;;;2.37;;
6825;SDS011;3451;52.476;13.316;2023-12-22T01:35:48;8.67;;;2.50;;
6825;SDS011;3451;52.476;13.316;2023-12-22T01:38:14;11.50;;;3.00;;
6825;SDS011;3451;52.476;13.316;2023-12-22T01:40:40;12.40;;;2.90;;
6825;SDS011;3451;52.476;13.316;2023-12-22T01:43:07;10.67;;;2.23;;
6825;SDS011;3451;52.476;13.316;2023-12-22T01:45:33;7.97;;;2.50;;
6825;SDS011;3451;52.476;13.316;2023-12-22T01:47:59;6.53;;;2.27;;
6825;SDS011;3451;52.476;13.316;2023-12-22T01:50:26;8.87;;;2.30;;
6825;SDS011;3451;52.476;13.316;2023-12-22T01:52:52;15.17;;;3.10;;
6825;SDS011;3451;52.476;13.316;2023-12-22T01:55:19;14.60;;;2.83;;
6825;SDS011;3451;52.476;13.316;2023-12-22T01:57:46;12.67;;;2.43;;
6825;SDS011;3451;52.476;13.316;2023-12-22T02:00:14;10.17;;;2.90;;
6825;SDS011;3451;52.476;13.316;2023-12-22T02:02:41;9.63;;;2.53;;
6825;SDS011;3451;52.476;13.316;2023-12-22T02:05:09;9.33;;;2.23;;
6825;SDS011;3451;52.476;13.316;2023-12-22T02:07:41;7.67;;;2.37;;
6825;SDS011;3451;52.476;13.316;2023-12-22T02:10:08;8.97;;;2.57;;
6825;SDS011;3451;52.476;13.316;2023-12-22T02:12:37;11.90;;;3.13;;
6825;SDS011;3451;52.476;13.316;2023-12-22T02:15:04;16.97;;;2.57;;
6825;SDS011;3451;52.476;13.316;2023-12-22T02:17:48;13.50;;;3.17;;
6825;SDS011;3451;52.476;13.316;2023-12-22T02:20:15;15.60;;;2.73;;
6825;SDS011;3451;52.476;13.316;2023-12-22T02:22:42;10.27;;;2.43;;
6825;SDS011;3451;52.476;13.316;2023-12-22T02:25:09;15.40;;;2.70;;
6825;SDS011;3451;52.476;13.316;2023-12-22T02:27:39;8.90;;;2.50;;
6825;SDS011;3451;52.476;13.316;2023-12-22T02:32:48;13.30;;;2.53;;
6825;SDS011;3451;52.476;13.316;2023-12-22T02:35:15;13.50;;;2.40;;
6825;SDS011;3451;52.476;13.316;2023-12-22T02:37:43;10.53;;;2.77;;
6825;SDS011;3451;52.476;13.316;2023-12-22T02:40:11;12.90;;;3.13;;
6825;SDS011;3451;52.476;13.316;2023-12-22T02:42:38;7.97;;;1.97;;
6825;SDS011;3451;52.476;13.316;2023-12-22T02:45:05;6.30;;;2.07;;
6825;SDS011;3451;52.476;13.316;2023-12-22T02:47:31;8.33;;;2.43;;
6825;SDS011;3451;52.476;13.316;2023-12-22T02:49:59;8.10;;;2.33;;
6825;SDS011;3451;52.476;13.316;2023-12-22T02:52:25;11.30;;;2.23;;
6825;SDS011;3451;52.476;13.316;2023-12-22T02:54:52;12.40;;;2.43;;
6825;SDS011;3451;52.476;13.316;2023-12-22T02:57:18;7.23;;;1.90;;
6825;SDS011;3451;52.476;13.316;2023-12-22T02:59:45;10.47;;;2.10;;
6825;SDS011;3451;52.476;13.316;2023-12-22T03:02:11;8.73;;;2.03;;
6825;SDS011;3451;52.476;13.316;2023-12-22T03:04:38;7.83;;;2.07;;
6825;SDS011;3451;52.476;13.316;2023-12-22T03:07:05;10.20;;;1.97;;
6825;SDS011;3451;52.476;13.316;2023-12-22T03:09:31;7.57;;;1.90;;
6825;SDS011;3451;52.476;13.316;2023-12-22T03:12:01;6.03;;;2.10;;
6825;SDS011;3451;52.476;13.316;2023-12-22T03:14:31;10.03;;;1.80;;
6825;SDS011;3451;52.476;13.316;2023-12-22T03:17:02;12.10;;;1.87;;
6825;SDS011;3451;52.476;13.316;2023-12-22T03:19:29;9.90;;;2.00;;
6825;SDS011;3451;52.476;13.316;2023-12-22T03:21:56;15.57;;;1.90;;
6825;SDS011;3451;52.476;13.316;2023-12-22T03:24:25;7.43;;;1.63;;
6825;SDS011;3451;52.476;13.316;2023-12-22T03:26:55;11.30;;;1.80;;
6825;SDS011;3451;52.476;13.316;2023-12-22T03:29:21;11.30;;;2.47;;
6825;SDS011;3451;52.476;13.316;2023-12-22T03:31:47;9.63;;;2.10;;
6825;SDS011;3451;52.476;13.316;2023-12-22T03:34:14;6.67;;;2.00;;
6825;SDS011;3451;52.476;13.316;2023-12-22T03:36:40;10.57;;;2.17;;
6825;SDS011;3451;52.476;13.316;2023-12-22T03:39:07;7.13;;;2.13;;
6825;SDS011;3451;52.476;13.316;2023-12-22T03:41:33;10.70;;;2.43;;
6825;SDS011;3451;52.476;13.316;2023-12-22T03:44:00;10.73;;;2.23;;
6825;SDS011;3451;52.476;13.316;2023-12-22T03:46:26;8.70;;;1.80;;
6825;SDS011;3451;52.476;13.316;2023-12-22T03:48:53;5.93;;;1.67;;
6825;SDS011;3451;52.476;13.316;2023-12-22T03:51:19;9.47;;;1.97;;
6825;SDS011;3451;52.476;13.316;2023-12-22T03:53:45;8.27;;;1.83;;
6825;SDS011;3451;52.476;13.316;2023-12-22T03:56:12;9.50;;;1.67;;
6825;SDS011;3451;52.476;13.316;2023-12-22T03:58:38;7.77;;;1.80;;
6825;SDS011;3451;52.476;13.316;2023-12-22T04:01:05;7.47;;;1.03;;
6825;SDS011;3451;52.476;13.316;2023-12-22T04:03:34;3.53;;;1.40;;
6825;SDS011;3451;52.476;13.316;2023-12-22T04:06:03;8.57;;;1.47;;
6825;SDS011;3451;52.476;13.316;2023-12-22T04:08:30;4.57;;;1.30;;
6825;SDS011;3451;52.476;13.316;2023-12-22T04:10:56;5.40;;;1.07;;
6825;SDS011;3451;52.476;13.316;2023-12-22T04:13:23;5.40;;;1.20;;
6825;SDS011;3451;52.476;13.316;2023-12-22T04:15:49;3.30;;;1.00;;
6825;SDS011;3451;52.476;13.316;2023-12-22T04:18:15;3.60;;;0.90;;
6825;SDS011;3451;52.476;13.316;2023-12-22T04:20:42;6.97;;;1.30;;
6825;SDS011;3451;52.476;13.316;2023-12-22T04:23:08;5.17;;;1.13;;
6825;SDS011;3451;52.476;13.316;2023-12-22T04:25:35;4.73;;;1.37;;
6825;SDS011;3451;52.476;13.316;2023-12-22T04:28:01;2.90;;;1.00;;
6825;SDS011;3451;52.476;13.316;2023-12-22T04:30:27;2.97;;;1.40;;
6825;SDS011;3451;52.476;13.316;2023-12-22T04:32:57;4.57;;;1.47;;
6825;SDS011;3451;52.476;13.316;2023-12-22T04:35:24;8.33;;;1.50;;
6825;SDS011;3451;52.476;13.316;2023-12-22T04:37:50;5.90;;;1.43;;
6825;SDS011;3451;52.476;13.316;2023-12-22T04:40:17;6.53;;;1.33;;
6825;SDS011;3451;52.476;13.316;2023-12-22T04:42:43;7.93;;;2.13;;
6825;SDS011;3451;52.476;13.316;2023-12-22T04:45:09;7.90;;;1.50;;
6825;SDS011;3451;52.476;13.316;2023-12-22T04:47:35;3.78;;;1.20;;
6825;SDS011;3451;52.476;13.316;2023-12-22T04:50:02;6.77;;;1.30;;
6825;SDS011;3451;52.476;13.316;2023-12-22T04:52:28;4.53;;;1.20;;
6825;SDS011;3451;52.476;13.316;2023-12-22T04:54:55;5.20;;;1.43;;
6825;SDS011;3451;52.476;13.316;2023-12-22T04:57:22;5.73;;;1.60;;
6825;SDS011;3451;52.476;13.316;2023-12-22T04:59:48;5.23;;;1.20;;
6825;SDS011;3451;52.476;13.316;2023-12-22T05:02:15;3.50;;;1.20;;
6825;SDS011;3451;52.476;13.316;2023-12-22T05:04:41;1.43;;;0.80;;
6825;SDS011;3451;52.476;13.316;2023-12-22T05:07:08;3.90;;;0.80;;
6825;SDS011;3451;52.476;13.316;2023-12-22T05:09:36;3.60;;;1.20;;
6825;SDS011;3451;52.476;13.316;2023-12-22T05:12:03;1.83;;;1.03;;
6825;SDS011;3451;52.476;13.316;2023-12-22T05:14:29;2.07;;;0.90;;
6825;SDS011;3451;52.476;13.316;2023-12-22T05:16:55;2.00;;;0.70;;
6825;SDS011;3451;52.476;13.316;2023-12-22T05:19:23;4.10;;;0.90;;
6825;SDS011;3451;52.476;13.316;2023-12-22T05:21:49;3.10;;;0.80;;
6825;SDS011;3451;52.476;13.316;2023-12-22T05:24:18;2.87;;;0.83;;
6825;SDS011;3451;52.476;13.316;2023-12-22T05:26:45;2.97;;;0.80;;
6825;SDS011;3451;52.476;13.316;2023-12-22T05:29:11;3.50;;;0.80;;
6825;SDS011;3451;52.476;13.316;2023-12-22T05:31:39;3.53;;;0.87;;
6825;SDS011;3451;52.476;13.316;2023-12-22T05:34:06;3.37;;;0.97;;
6825;SDS011;3451;52.476;13.316;2023-12-22T05:36:32;4.77;;;0.80;;
6825;SDS011;3451;52.476;13.316;2023-12-22T05:38:58;1.60;;;1.00;;
6825;SDS011;3451;52.476;13.316;2023-12-22T05:41:25;2.43;;;0.80;;
6825;SDS011;3451;52.476;13.316;2023-12-22T05:43:51;2.93;;;0.80;;
6825;SDS011;3451;52.476;13.316;2023-12-22T05:46:18;4.37;;;1.10;;
6825;SDS011;3451;52.476;13.316;2023-12-22T05:48:44;4.73;;;1.20;;
6825;SDS011;3451;52.476;13.316;2023-12-22T05:51:11;3.97;;;1.10;;
6825;SDS011;3451;52.476;13.316;2023-12-22T05:53:40;3.27;;;1.10;;
6825;SDS011;3451;52.476;13.316;2023-12-22T05:56:19;2.53;;;1.00;;
6825;SDS011;3451;52.476;13.316;2023-12-22T05:58:46;4.63;;;1.27;;
6825;SDS011;3451;52.476;13.316;2023-12-22T06:01:16;4.30;;;1.20;;
6825;SDS011;3451;52.476;13.316;2023-12-22T06:03:47;3.33;;;0.93;;
6825;SDS011;3451;52.476;13.316;2023-12-22T06:06:14;4.97;;;1.27;;
6825;SDS011;3451;52.476;13.316;2023-12-22T06:08:40;3.80;;;1.27;;
6825;SDS011;3451;52.476;13.316;2023-12-22T06:11:07;6.67;;;1.07;;
6825;SDS011;3451;52.476;13.316;2023-12-22T06:13:33;5.43;;;1.10;;
6825;SDS011;3451;52.476;13.316;2023-12-22T06:15:59;4.00;;;1.40;;
6825;SDS011;3451;52.476;13.316;2023-12-22T06:18:26;2.70;;;0.93;;
6825;SDS011;3451;52.476;13.316;2023-12-22T06:20:52;6.90;;;1.30;;
6825;SDS011;3451;52.476;13.316;2023-12-22T06:23:19;3.13;;;1.10;;
6825;SDS011;3451;52.476;13.316;2023-12-22T06:25:45;3.90;;;1.10;;
6825;SDS011;3451;52.476;13.316;2023-12-22T06:28:12;3.30;;;0.93;;
6825;SDS011;3451;52.476;13.316;2023-12-22T06:30:39;2.60;;;0.97;;
6825;SDS011;3451;52.476;13.316;2023-12-22T06:33:05;3.23;;;0.90;;
6825;SDS011;3451;52.476;13.316;2023-12-22T06:35:31;3.60;;;1.10;;
6825;SDS011;3451;52.476;13.316;2023-12-22T06:38:00;5.17;;;1.33;;
6825;SDS011;3451;52.476;13.316;2023-12-22T06:40:30;5.43;;;1.00;;
6825;SDS011;3451;52.476;13.316;2023-12-22T06:42:57;3.33;;;1.17;;
6825;SDS011;3451;52.476;13.316;2023-12-22T06:45:23;3.07;;;0.97;;
6825;SDS011;3451;52.476;13.316;2023-12-22T06:47:49;6.40;;;1.00;;
6825;SDS011;3451;52.476;13.316;2023-12-22T06:50:16;3.33;;;0.80;;
6825;SDS011;3451;52.476;13.316;2023-12-22T06:52:43;3.60;;;0.90;;
6825;SDS011;3451;52.476;13.316;2023-12-22T06:55:09;7.10;;;1.20;;
6825;SDS011;3451;52.476;13.316;2023-12-22T06:57:36;3.90;;;1.10;;
6825;SDS011;3451;52.476;13.316;2023-12-22T07:00:03;4.13;;;1.23;;
6825;SDS011;3451;52.476;13.316;2023-12-22T07:02:30;4.27;;;1.13;;
6825;SDS011;3451;52.476;13.316;2023-12-22T07:07:36;3.53;;;0.90;;
6825;SDS011;3451;52.476;13.316;2023-12-22T07:10:03;4.33;;;1.13;;
6825;SDS011;3451;52.476;13.316;2023-12-22T07:12:29;5.67;;;1.20;;
6825;SDS011;3451;52.476;13.316;2023-12-22T07:14:58;7.33;;;1.10;;
6825;SDS011;3451;52.476;13.316;2023-12-22T07:17:25;4.53;;;1.30;;
6825;SDS011;3451;52.476;13.316;2023-12-22T07:19:51;3.70;;;0.93;;
6825;SDS011;3451;52.476;13.316;2023-12-22T07:22:18;4.67;;;1.10;;
6825;SDS011;3451;52.476;13.316;2023-12-22T07:24:44;3.97;;;1.00;;
6825;SDS011;3451;52.476;13.316;2023-12-22T07:27:12;4.27;;;1.27;;
6825;SDS011;3451;52.476;13.316;2023-12-22T07:29:39;5.80;;;1.00;;
6825;SDS011;3451;52.476;13.316;2023-12-22T07:32:05;3.20;;;0.90;;
6825;SDS011;3451;52.476;13.316;2023-12-22T07:34:32;4.83;;;1.37;;
6825;SDS011;3451;52.476;13.316;2023-12-22T07:37:02;3.67;;;1.13;;
6825;SDS011;3451;52.476;13.316;2023-12-22T07:39:33;5.07;;;1.20;;
6825;SDS011;3451;52.476;13.316;2023-12-22T07:42:02;8.27;;;1.30;;
6825;SDS011;3451;52.476;13.316;2023-12-22T07:44:28;6.13;;;1.13;;
6825;SDS011;3451;52.476;13.316;2023-12-22T07:46:55;10.20;;;1.50;;
6825;SDS011;3451;52.476;13.316;2023-12-22T07:49:22;5.57;;;1.30;;
6825;SDS011;3451;52.476;13.316;2023-12-22T07:51:50;6.37;;;1.40;;
6825;SDS011;3451;52.476;13.316;2023-12-22T07:54:17;4.33;;;1.30;;
6825;SDS011;3451;52.476;13.316;2023-12-22T07:56:44;7.83;;;1.53;;
6825;SDS011;3451;52.476;13.316;2023-12-22T07:59:11;6.43;;;1.63;;
6825;SDS011;3451;52.476;13.316;2023-12-22T08:01:55;8.77;;;1.40;;
6825;SDS011;3451;52.476;13.316;2023-12-22T08:04:21;5.27;;;1.43;;
6825;SDS011;3451;52.476;13.316;2023-12-22T08:06:47;5.97;;;1.40;;
6825;SDS011;3451;52.476;13.316;2023-12-22T08:09:14;6.87;;;1.27;;
6825;SDS011;3451;52.476;13.316;2023-12-22T08:11:40;3.90;;;1.20;;
6825;SDS011;3451;52.476;13.316;2023-12-22T08:14:06;4.87;;;1.10;;
6825;SDS011;3451;52.476;13.316;2023-12-22T08:16:33;5.47;;;1.23;;
6825;SDS011;3451;52.476;13.316;2023-12-22T08:18:59;3.77;;;0.90;;
6825;SDS011;3451;52.476;13.316;2023-12-22T08:21:26;2.03;;;0.83;;
6825;SDS011;3451;52.476;13.316;2023-12-22T08:24:08;1.73;;;0.97;;
6825;SDS011;3451;52.476;13.316;2023-12-22T08:26:36;4.63;;;1.23;;
6825;SDS011;3451;52.476;13.316;2023-12-22T08:29:03;4.40;;;0.90;;
6825;SDS011;3451;52.476;13.316;2023-12-22T08:31:29;4.47;;;1.17;;
6825;SDS011;3451;52.476;13.316;2023-12-22T08:33:55;2.80;;;1.10;;
6825;SDS011;3451;52.476;13.316;2023-12-22T08:36:22;6.47;;;1.60;;
6825;SDS011;3451;52.476;13.316;2023-12-22T08:38:49;7.40;;;1.33;;
6825;SDS011;3451;52.476;13.316;2023-12-22T08:41:16;4.83;;;1.33;;
6825;SDS011;3451;52.476;13.316;2023-12-22T08:43:43;5.30;;;1.23;;
6825;SDS011;3451;52.476;13.316;2023-12-22T08:46:09;5.90;;;1.43;;
6825;SDS011;3451;52.476;13.316;2023-12-22T08:48:36;4.87;;;1.50;;
6825;SDS011;3451;52.476;13.316;2023-12-22T08:51:04;8.83;;;1.63;;
6825;SDS011;3451;52.476;13.316;2023-12-22T08:53:32;5.23;;;1.33;;
6825;SDS011;3451;52.476;13.316;2023-12-22T08:56:02;8.57;;;1.33;;
6825;SDS011;3451;52.476;13.316;2023-12-22T08:58:29;12.67;;;2.07;;
6825;SDS011;3451;52.476;13.316;2023-12-22T09:00:55;4.20;;;1.37;;
6825;SDS011;3451;52.476;13.316;2023-12-22T09:03:22;11.23;;;1.80;;
6825;SDS011;3451;52.476;13.316;2023-12-22T09:05:49;7.47;;;1.80;;
6825;SDS011;3451;52.476;13.316;2023-12-22T09:08:16;7.33;;;1.60;;
6825;SDS011;3451;52.476;13.316;2023-12-22T09:10:42;6.50;;;1.57;;
6825;SDS011;3451;52.476;13.316;2023-12-22T09:13:09;4.37;;;1.40;;
6825;SDS011;3451;52.476;13.316;2023-12-22T09:15:35;8.13;;;1.90;;
6825;SDS011;3451;52.476;13.316;2023-12-22T09:18:02;6.27;;;1.63;;
6825;SDS011;3451;52.476;13.316;2023-12-22T09:20:29;13.43;;;2.20;;
6825;SDS011;3451;52.476;13.316;2023-12-22T09:22:56;8.60;;;1.50;;
6825;SDS011;3451;52.476;13.316;2023-12-22T09:25:23;11.50;;;1.93;;
6825;SDS011;3451;52.476;13.316;2023-12-22T09:27:50;6.70;;;2.03;;
6825;SDS011;3451;52.476;13.316;2023-12-22T09:30:17;7.50;;;1.80;;
6825;SDS011;3451;52.476;13.316;2023-12-22T09:32:44;14.50;;;2.60;;
6825;SDS011;3451;52.476;13.316;2023-12-22T09:35:10;11.77;;;2.07;;
6825;SDS011;3451;52.476;13.316;2023-12-22T09:37:36;7.97;;;1.80;;
6825;SDS011;3451;52.476;13.316;2023-12-22T09:40:04;12.27;;;2.17;;
6825;SDS011;3451;52.476;13.316;2023-12-22T09:42:30;8.27;;;2.20;;
6825;SDS011;3451;52.476;13.316;2023-12-22T09:44:57;8.70;;;2.80;;
6825;SDS011;3451;52.476;13.316;2023-12-22T09:47:24;11.23;;;2.20;;
6825;SDS011;3451;52.476;13.316;2023-12-22T09:49:51;7.03;;;1.60;;
6825;SDS011;3451;52.476;13.316;2023-12-22T09:52:18;17.37;;;2.43;;
6825;SDS011;3451;52.476;13.316;2023-12-22T09:54:44;10.13;;;2.20;;
6825;SDS011;3451;52.476;13.316;2023-12-22T09:57:11;10.83;;;1.97;;
6825;SDS011;3451;52.476;13.316;2023-12-22T09:59:51;15.80;;;2.60;;
6825;SDS011;3451;52.476;13.316;2023-12-22T10:02:18;13.17;;;2.30;;
6825;SDS011;3451;52.476;13.316;2023-12-22T10:04:45;11.43;;;2.33;;
6825;SDS011;3451;52.476;13.316;2023-12-22T10:07:12;11.63;;;2.03;;
6825;SDS011;3451;52.476;13.316;2023-12-22T10:09:41;9.80;;;1.90;;
6825;SDS011;3451;52.476;13.316;2023-12-22T10:12:08;12.10;;;2.57;;
6825;SDS011;3451;52.476;13.316;2023-12-22T10:14:35;9.57;;;2.27;;
6825;SDS011;3451;52.476;13.316;2023-12-22T10:17:06;9.47;;;2.47;;
6825;SDS011;3451;52.476;13.316;2023-12-22T10:19:32;20.73;;;2.73;;
6825;SDS011;3451;52.476;13.316;2023-12-22T10:21:59;13.50;;;2.33;;
6825;SDS011;3451;52.476;13.316;2023-12-22T10:27:04;9.23;;;2.20;;
6825;SDS011;3451;52.476;13.316;2023-12-22T10:29:30;11.70;;;2.70;;
6825;SDS011;3451;52.476;13.316;2023-12-22T10:31:57;14.17;;;2.40;;
6825;SDS011;3451;52.476;13.316;2023-12-22T10:34:24;13.47;;;2.57;;
6825;SDS011;3451;52.476;13.316;2023-12-22T10:36:50;15.67;;;2.63;;
6825;SDS011;3451;52.476;13.316;2023-12-22T10:39:16;10.77;;;2.63;;
6825;SDS011;3451;52.476;13.316;2023-12-22T10:41:43;11.77;;;2.87;;
6825;SDS011;3451;52.476;13.316;2023-12-22T10:44:10;11.20;;;2.20;;
6825;SDS011;3451;52.476;13.316;2023-12-22T10:46:36;9.47;;;2.87;;
6825;SDS011;3451;52.476;13.316;2023-12-22T10:49:02;13.10;;;2.63;;
6825;SDS011;3451;52.476;13.316;2023-12-22T10:51:30;9.30;;;2.50;;
6825;SDS011;3451;52.476;13.316;2023-12-22T10:53:59;13.60;;;2.63;;
6825;SDS011;3451;52.476;13.316;2023-12-22T10:56:25;10.57;;;2.30;;
6825;SDS011;3451;52.476;13.316;2023-12-22T10:58:52;10.20;;;1.93;;
6825;SDS011;3451;52.476;13.316;2023-12-22T11:01:20;9.90;;;2.37;;
6825;SDS011;3451;52.476;13.316;2023-12-22T11:03:48;9.40;;;1.90;;
6825;SDS011;3451;52.476;13.316;2023-12-22T11:06:16;7.60;;;2.40;;
6825;SDS011;3451;52.476;13.316;2023-12-22T11:08:43;8.73;;;1.70;;
6825;SDS011;3451;52.476;13.316;2023-12-22T11:11:16;16.40;;;2.43;;
6825;SDS011;3451;52.476;13.316;2023-12-22T11:13:45;10.40;;;2.23;;
6825;SDS011;3451;52.476;13.316;2023-12-22T11:16:12;9.93;;;2.03;;
6825;SDS011;3451;52.476;13.316;2023-12-22T11:18:40;12.47;;;2.47;;
6825;SDS011;3451;52.476;13.316;2023-12-22T11:21:07;12.77;;;2.07;;
6825;SDS011;3451;52.476;13.316;2023-12-22T11:23:34;10.93;;;2.57;;
6825;SDS011;3451;52.476;13.316;2023-12-22T11:26:01;13.60;;;2.43;;
6825;SDS011;3451;52.476;13.316;2023-12-22T11:28:30;12.23;;;1.73;;
6825;SDS011;3451;52.476;13.316;2023-12-22T11:30:57;7.53;;;2.30;;
6825;SDS011;3451;52.476;13.316;2023-12-22T11:33:25;9.17;;;2.60;;
6825;SDS011;3451;52.476;13.316;2023-12-22T11:35:52;9.17;;;1.80;;
6825;SDS011;3451;52.476;13.316;2023-12-22T11:38:21;6.03;;;1.90;;
6825;SDS011;3451;52.476;13.316;2023-12-22T11:40:48;8.60;;;1.87;;
6825;SDS011;3451;52.476;13.316;2023-12-22T11:43:15;8.03;;;2.23;;
6825;SDS011;3451;52.476;13.316;2023-12-22T11:45:42;9.57;;;2.10;;
6825;SDS011;3451;52.476;13.316;2023-12-22T11:48:09;7.30;;;1.90;;
6825;SDS011;3451;52.476;13.316;2023-12-22T11:50:36;13.07;;;1.93;;
6825;SDS011;3451;52.476;13.316;2023-12-22T11:53:18;8.97;;;2.10;;
6825;SDS011;3451;52.476;13.316;2023-12-22T11:58:33;13.00;;;2.20;;
6825;SDS011;3451;52.476;13.316;2023-12-22T12:01:01;10.37;;;1.80;;
6825;SDS011;3451;52.476;13.316;2023-12-22T12:03:27;8.33;;;2.17;;
6825;SDS011;3451;52.476;13.316;2023-12-22T12:08:53;10.17;;;1.83;;
6825;SDS011;3451;52.476;13.316;2023-12-22T12:11:20;9.07;;;1.70;;
6825;SDS011;3451;52.476;13.316;2023-12-22T12:13:47;8.60;;;1.93;;
6825;SDS011;3451;52.476;13.316;2023-12-22T12:16:14;13.53;;;2.30;;
6825;SDS011;3451;52.476;13.316;2023-12-22T12:18:41;8.23;;;1.80;;
6825;SDS011;3451;52.476;13.316;2023-12-22T12:21:09;11.40;;;2.20;;
6825;SDS011;3451;52.476;13.316;2023-12-22T12:23:36;9.37;;;2.03;;
6825;SDS011;3451;52.476;13.316;2023-12-22T12:26:02;9.67;;;2.27;;
6825;SDS011;3451;52.476;13.316;2023-12-22T12:28:30;19.70;;;2.77;;
6825;SDS011;3451;52.476;13.316;2023-12-22T12:30:57;14.30;;;2.63;;
6825;SDS011;3451;52.476;13.316;2023-12-22T12:33:25;11.13;;;2.17;;
6825;SDS011;3451;52.476;13.316;2023-12-22T12:35:52;9.17;;;1.87;;
6825;SDS011;3451;52.476;13.316;2023-12-22T12:38:27;10.53;;;2.33;;
6825;SDS011;3451;52.476;13.316;2023-12-22T12:40:55;9.63;;;2.00;;
6825;SDS011;3451;52.476;13.316;2023-12-22T12:43:23;11.80;;;2.10;;
6825;SDS011;3451;52.476;13.316;2023-12-22T12:45:51;14.37;;;2.90;;
6825;SDS011;3451;52.476;13.316;2023-12-22T12:48:18;9.70;;;1.90;;
6825;SDS011;3451;52.476;13.316;2023-12-22T12:50:45;11.30;;;2.10;;
6825;SDS011;3451;52.476;13.316;2023-12-22T12:53:11;13.77;;;2.53;;
6825;SDS011;3451;52.476;13.316;2023-12-22T12:55:38;10.53;;;1.90;;
6825;SDS011;3451;52.476;13.316;2023-12-22T12:58:04;9.13;;;1.90;;
6825;SDS011;3451;52.476;13.316;2023-12-22T13:00:32;8.23;;;1.87;;
6825;SDS011;3451;52.476;13.316;2023-12-22T13:03:03;12.33;;;2.20;;
6825;SDS011;3451;52.476;13.316;2023-12-22T13:05:33;12.73;;;1.77;;
6825;SDS011;3451;52.476;13.316;2023-12-22T13:08:07;12.53;;;2.97;;
6825;SDS011;3451;52.476;13.316;2023-12-22T13:10:35;14.40;;;2.70;;
6825;SDS011;3451;52.476;13.316;2023-12-22T13:13:02;9.90;;;2.10;;
6825;SDS011;3451;52.476;13.316;2023-12-22T13:15:29;13.33;;;2.67;;
6825;SDS011;3451;52.476;13.316;2023-12-22T13:17:55;12.37;;;2.33;;
6825;SDS011;3451;52.476;13.316;2023-12-22T13:20:22;10.33;;;2.40;;
6825;SDS011;3451;52.476;13.316;2023-12-22T13:22:48;10.20;;;2.00;;
6825;SDS011;3451;52.476;13.316;2023-12-22T13:25:15;14.07;;;3.27;;
6825;SDS011;3451;52.476;13.316;2023-12-22T13:30:12;17.03;;;2.73;;
6825;SDS011;3451;52.476;13.316;2023-12-22T13:32:39;12.43;;;2.30;;
6825;SDS011;3451;52.476;13.316;2023-12-22T13:35:05;11.73;;;2.73;;
6825;SDS011;3451;52.476;13.316;2023-12-22T13:37:32;10.73;;;2.20;;
6825;SDS011;3451;52.476;13.316;2023-12-22T13:39:59;7.80;;;1.83;;
6825;SDS011;3451;52.476;13.316;2023-12-22T13:42:26;6.37;;;2.00;;
6825;SDS011;3451;52.476;13.316;2023-12-22T13:44:52;9.13;;;2.27;;
6825;SDS011;3451;52.476;13.316;2023-12-22T13:47:19;7.40;;;2.00;;
6825;SDS011;3451;52.476;13.316;2023-12-22T13:49:46;12.27;;;2.40;;
6825;SDS011;3451;52.476;13.316;2023-12-22T13:52:25;9.33;;;2.67;;
6825;SDS011;3451;52.476;13.316;2023-12-22T13:54:53;13.77;;;2.30;;
6825;SDS011;3451;52.476;13.316;2023-12-22T13:57:22;12.43;;;1.97;;
6825;SDS011;3451;52.476;13.316;2023-12-22T13:59:51;11.73;;;2.20;;
6825;SDS011;3451;52.476;13.316;2023-12-22T14:02:21;7.57;;;1.90;;
6825;SDS011;3451;52.476;13.316;2023-12-22T14:04:49;10.00;;;1.90;;
6825;SDS011;3451;52.476;13.316;2023-12-22T14:07:16;6.50;;;1.50;;
6825;SDS011;3451;52.476;13.316;2023-12-22T14:09:42;4.97;;;1.53;;
6825;SDS011;3451;52.476;13.316;2023-12-22T14:12:08;9.13;;;1.40;;
6825;SDS011;3451;52.476;13.316;2023-12-22T14:14:43;7.03;;;1.87;;
6825;SDS011;3451;52.476;13.316;2023-12-22T14:17:09;5.00;;;1.50;;
6825;SDS011;3451;52.476;13.316;2023-12-22T14:19:35;7.83;;;1.60;;
6825;SDS011;3451;52.476;13.316;2023-12-22T14:22:02;5.00;;;1.27;;
6825;SDS011;3451;52.476;13.316;2023-12-22T14:24:28;5.30;;;1.53;;
6825;SDS011;3451;52.476;13.316;2023-12-22T14:26:55;8.67;;;1.83;;
6825;SDS011;3451;52.476;13.316;2023-12-22T14:29:22;6.83;;;1.80;;
6825;SDS011;3451;52.476;13.316;2023-12-22T14:31:51;5.83;;;1.20;;
6825;SDS011;3451;52.476;13.316;2023-12-22T14:34:18;5.70;;;1.10;;
6825;SDS011;3451;52.476;13.316;2023-12-22T14:36:44;7.87;;;1.53;;
6825;SDS011;3451;52.476;13.316;2023-12-22T14:39:11;3.73;;;1.10;;
6825;SDS011;3451;52.476;13.316;2023-12-22T14:41:39;5.57;;;1.60;;
6825;SDS011;3451;52.476;13.316;2023-12-22T14:44:06;7.50;;;1.53;;
6825;SDS011;3451;52.476;13.316;2023-12-22T14:46:36;6.93;;;1.77;;
6825;SDS011;3451;52.476;13.316;2023-12-22T14:49:03;7.47;;;1.70;;
6825;SDS011;3451;52.476;13.316;2023-12-22T14:51:34;7.23;;;1.13;;
6825;SDS011;3451;52.476;13.316;2023-12-22T14:54:00;4.27;;;1.23;;
6825;SDS011;3451;52.476;13.316;2023-12-22T14:56:26;6.20;;;1.50;;
6825;SDS011;3451;52.476;13.316;2023-12-22T14:58:53;6.27;;;1.80;;
6825;SDS011;3451;52.476;13.316;2023-12-22T15:01:19;6.10;;;1.33;;
6825;SDS011;3451;52.476;13.316;2023-12-22T15:03:45;9.57;;;1.90;;
6825;SDS011;3451;52.476;13.316;2023-12-22T15:06:12;6.87;;;1.70;;
6825;SDS011;3451;52.476;13.316;2023-12-22T15:08:40;10.57;;;1.80;;
6825;SDS011;3451;52.476;13.316;2023-12-22T15:11:06;7.43;;;1.47;;
6825;SDS011;3451;52.476;13.316;2023-12-22T15:13:34;7.83;;;1.60;;